Página principal
METAR-TAF:

METAR-TAF

Aeroportos :

Aeroporto Internacional de Bonriki

Tarawa, Kiribati

latitude: 01-21N, longitude: 172-55E, altura: 2 m

Observação actual do tempo

O boletim foi feito há 45 minutos, às 02:00 UTC
Vento 7 kt de nordeste
Temperatura 32°C
Humidade 71%
Pressão 1007 hPa
Visibilidade 10 km ou mais
Poucas nuvensa uma altura de 1900 ft

METAR: NGTA 240200Z 05007KT 9999 FEW019 32/26 Q1007

Hora: 16:45 (02:45 UTC)

Previsão

O boletim foi feito há 3 horas e 25 minutos, às 23:20 UTC
Previsão válida de 24 às 00 UTC a 24 às 24 UTC
Vento 8 kt de es-nordeste
Visibilidade 10 km ou mais
Poucas nuvensa uma altura de 2000 ft
Probabilidade 40% :
Temporariamente
de 24 às 00 UTC a 24 às 20 UTC
Visibilidade: 3000 m
Nuvens fragmentadasa uma altura de 1500 ft
Poucas nuvensa uma altura de 1800 ft, Cumulonimbus.
trovoada, chuva

TAF: NGTA 232320Z 2400/2424 06008KT 9999 FEW020 PROB40 TEMPO 2400/2420 3000 TSRA BKN015 FEW018CB

Observações e previsões do tempo de mais de 4000 aeroportos (mensagens METAR e TAF).

As estações disponíveis são os pontos amarelos e vermelhos sobre o mapa.

Mova o rato sobre o mapa para ver o nome da estação.

Depois clique no ponto para visualizar as observações e previsões meteorológicas.

Para alterar o mapa : clique nos botões verdes com uma cruz preta para aumentar o zoom; no botão verde com uma pitada de zoom; ou nas setas verdes para mapas adjacentes.


METAR-TAF: